sensor_id;sensor_type;location;lat;lon;timestamp;P1;durP1;ratioP1;P2;durP2;ratioP2
58139;SDS011;53185;47.378;18.922;2023-06-14T00:02:19;5.75;;;3.22;;
58139;SDS011;53185;47.378;18.922;2023-06-14T00:04:47;5.25;;;3.40;;
58139;SDS011;53185;47.378;18.922;2023-06-14T00:07:15;9.18;;;3.40;;
58139;SDS011;53185;47.378;18.922;2023-06-14T00:09:43;8.02;;;3.80;;
58139;SDS011;53185;47.378;18.922;2023-06-14T00:12:11;5.60;;;3.85;;
58139;SDS011;53185;47.378;18.922;2023-06-14T00:14:38;6.65;;;3.90;;
58139;SDS011;53185;47.378;18.922;2023-06-14T00:17:05;7.03;;;3.70;;
58139;SDS011;53185;47.378;18.922;2023-06-14T00:19:34;5.75;;;3.85;;
58139;SDS011;53185;47.378;18.922;2023-06-14T00:22:03;12.35;;;4.30;;
58139;SDS011;53185;47.378;18.922;2023-06-14T00:24:31;8.43;;;3.78;;
58139;SDS011;53185;47.378;18.922;2023-06-14T00:26:58;6.60;;;3.80;;
58139;SDS011;53185;47.378;18.922;2023-06-14T00:29:25;9.48;;;4.00;;
58139;SDS011;53185;47.378;18.922;2023-06-14T00:31:55;5.78;;;4.03;;
58139;SDS011;53185;47.378;18.922;2023-06-14T00:34:26;5.95;;;3.53;;
58139;SDS011;53185;47.378;18.922;2023-06-14T00:36:54;8.70;;;3.80;;
58139;SDS011;53185;47.378;18.922;2023-06-14T00:39:22;7.43;;;3.97;;
58139;SDS011;53185;47.378;18.922;2023-06-14T00:41:50;5.93;;;3.67;;
58139;SDS011;53185;47.378;18.922;2023-06-14T00:44:17;11.55;;;4.57;;
58139;SDS011;53185;47.378;18.922;2023-06-14T00:46:45;6.80;;;3.87;;
58139;SDS011;53185;47.378;18.922;2023-06-14T00:49:14;8.43;;;4.10;;
58139;SDS011;53185;47.378;18.922;2023-06-14T00:51:42;8.00;;;4.30;;
58139;SDS011;53185;47.378;18.922;2023-06-14T00:54:09;11.02;;;5.22;;
58139;SDS011;53185;47.378;18.922;2023-06-14T00:56:37;7.53;;;4.15;;
58139;SDS011;53185;47.378;18.922;2023-06-14T00:59:05;7.90;;;4.00;;
58139;SDS011;53185;47.378;18.922;2023-06-14T01:01:32;14.70;;;4.47;;
58139;SDS011;53185;47.378;18.922;2023-06-14T01:04:00;10.27;;;4.22;;
58139;SDS011;53185;47.378;18.922;2023-06-14T01:09:27;12.40;;;4.65;;
58139;SDS011;53185;47.378;18.922;2023-06-14T01:15:12;7.60;;;4.32;;
58139;SDS011;53185;47.378;18.922;2023-06-14T01:17:40;7.22;;;4.40;;
58139;SDS011;53185;47.378;18.922;2023-06-14T01:20:11;8.63;;;4.22;;
58139;SDS011;53185;47.378;18.922;2023-06-14T01:22:49;7.80;;;4.68;;
58139;SDS011;53185;47.378;18.922;2023-06-14T01:25:18;10.02;;;4.22;;
58139;SDS011;53185;47.378;18.922;2023-06-14T01:27:50;8.43;;;4.28;;
58139;SDS011;53185;47.378;18.922;2023-06-14T01:30:20;7.53;;;4.68;;
58139;SDS011;53185;47.378;18.922;2023-06-14T01:32:48;8.23;;;4.55;;
58139;SDS011;53185;47.378;18.922;2023-06-14T01:35:18;9.35;;;4.70;;
58139;SDS011;53185;47.378;18.922;2023-06-14T01:37:49;10.80;;;5.53;;
58139;SDS011;53185;47.378;18.922;2023-06-14T01:40:17;9.85;;;5.00;;
58139;SDS011;53185;47.378;18.922;2023-06-14T01:42:46;10.35;;;4.95;;
58139;SDS011;53185;47.378;18.922;2023-06-14T01:45:14;9.32;;;6.00;;
58139;SDS011;53185;47.378;18.922;2023-06-14T01:47:42;14.15;;;5.40;;
58139;SDS011;53185;47.378;18.922;2023-06-14T01:50:11;10.82;;;5.55;;
58139;SDS011;53185;47.378;18.922;2023-06-14T01:52:39;10.68;;;5.60;;
58139;SDS011;53185;47.378;18.922;2023-06-14T01:55:07;11.90;;;5.03;;
58139;SDS011;53185;47.378;18.922;2023-06-14T01:57:35;16.17;;;5.53;;
58139;SDS011;53185;47.378;18.922;2023-06-14T02:00:03;10.85;;;5.60;;
58139;SDS011;53185;47.378;18.922;2023-06-14T02:02:38;11.40;;;5.95;;
58139;SDS011;53185;47.378;18.922;2023-06-14T02:05:06;9.40;;;5.37;;
58139;SDS011;53185;47.378;18.922;2023-06-14T02:07:34;11.82;;;5.80;;
58139;SDS011;53185;47.378;18.922;2023-06-14T02:10:02;15.73;;;6.60;;
58139;SDS011;53185;47.378;18.922;2023-06-14T02:12:30;11.07;;;5.95;;
58139;SDS011;53185;47.378;18.922;2023-06-14T02:14:58;14.32;;;5.70;;
58139;SDS011;53185;47.378;18.922;2023-06-14T02:17:25;11.05;;;6.15;;
58139;SDS011;53185;47.378;18.922;2023-06-14T02:19:54;12.05;;;6.03;;
58139;SDS011;53185;47.378;18.922;2023-06-14T02:22:25;12.95;;;6.22;;
58139;SDS011;53185;47.378;18.922;2023-06-14T02:24:52;12.52;;;6.12;;
58139;SDS011;53185;47.378;18.922;2023-06-14T02:27:28;15.30;;;6.32;;
58139;SDS011;53185;47.378;18.922;2023-06-14T02:29:55;14.38;;;7.12;;
58139;SDS011;53185;47.378;18.922;2023-06-14T02:32:24;14.30;;;7.25;;
58139;SDS011;53185;47.378;18.922;2023-06-14T02:34:53;22.42;;;8.05;;
58139;SDS011;53185;47.378;18.922;2023-06-14T02:37:21;12.13;;;6.03;;
58139;SDS011;53185;47.378;18.922;2023-06-14T02:39:48;14.95;;;6.50;;
58139;SDS011;53185;47.378;18.922;2023-06-14T02:42:16;15.82;;;7.10;;
58139;SDS011;53185;47.378;18.922;2023-06-14T02:44:43;11.82;;;6.80;;
58139;SDS011;53185;47.378;18.922;2023-06-14T02:47:12;18.73;;;7.45;;
58139;SDS011;53185;47.378;18.922;2023-06-14T02:49:39;15.00;;;7.50;;
58139;SDS011;53185;47.378;18.922;2023-06-14T02:52:07;15.95;;;8.48;;
58139;SDS011;53185;47.378;18.922;2023-06-14T02:54:36;15.27;;;7.32;;
58139;SDS011;53185;47.378;18.922;2023-06-14T02:57:03;14.00;;;6.47;;
58139;SDS011;53185;47.378;18.922;2023-06-14T02:59:34;13.85;;;7.03;;
58139;SDS011;53185;47.378;18.922;2023-06-14T03:02:03;24.25;;;7.97;;
58139;SDS011;53185;47.378;18.922;2023-06-14T03:04:31;15.63;;;7.35;;
58139;SDS011;53185;47.378;18.922;2023-06-14T03:07:04;19.27;;;6.97;;
58139;SDS011;53185;47.378;18.922;2023-06-14T03:09:48;22.48;;;7.40;;
58139;SDS011;53185;47.378;18.922;2023-06-14T03:12:16;22.58;;;8.02;;
58139;SDS011;53185;47.378;18.922;2023-06-14T03:14:43;22.37;;;8.52;;
58139;SDS011;53185;47.378;18.922;2023-06-14T03:17:13;17.05;;;8.35;;
58139;SDS011;53185;47.378;18.922;2023-06-14T03:19:40;17.60;;;8.20;;
58139;SDS011;53185;47.378;18.922;2023-06-14T03:22:08;15.85;;;7.55;;
58139;SDS011;53185;47.378;18.922;2023-06-14T03:24:36;14.82;;;7.87;;
58139;SDS011;53185;47.378;18.922;2023-06-14T03:27:05;15.43;;;6.87;;
58139;SDS011;53185;47.378;18.922;2023-06-14T03:29:33;18.30;;;7.07;;
58139;SDS011;53185;47.378;18.922;2023-06-14T03:32:01;13.98;;;7.45;;
58139;SDS011;53185;47.378;18.922;2023-06-14T03:34:32;10.93;;;6.07;;
58139;SDS011;53185;47.378;18.922;2023-06-14T03:36:59;13.62;;;7.70;;
58139;SDS011;53185;47.378;18.922;2023-06-14T03:39:27;15.40;;;7.22;;
58139;SDS011;53185;47.378;18.922;2023-06-14T03:41:55;15.48;;;7.05;;
58139;SDS011;53185;47.378;18.922;2023-06-14T03:44:22;12.25;;;6.60;;
58139;SDS011;53185;47.378;18.922;2023-06-14T03:46:50;17.55;;;7.28;;
58139;SDS011;53185;47.378;18.922;2023-06-14T03:49:18;10.95;;;6.97;;
58139;SDS011;53185;47.378;18.922;2023-06-14T03:51:46;13.77;;;6.55;;
58139;SDS011;53185;47.378;18.922;2023-06-14T03:54:19;8.93;;;5.57;;
58139;SDS011;53185;47.378;18.922;2023-06-14T03:56:51;12.82;;;7.95;;
58139;SDS011;53185;47.378;18.922;2023-06-14T03:59:18;14.93;;;6.90;;
58139;SDS011;53185;47.378;18.922;2023-06-14T04:01:46;15.73;;;7.03;;
58139;SDS011;53185;47.378;18.922;2023-06-14T04:04:14;11.80;;;6.22;;
58139;SDS011;53185;47.378;18.922;2023-06-14T04:06:43;14.07;;;6.60;;
58139;SDS011;53185;47.378;18.922;2023-06-14T04:09:11;11.88;;;6.85;;
58139;SDS011;53185;47.378;18.922;2023-06-14T04:11:40;13.98;;;7.32;;
58139;SDS011;53185;47.378;18.922;2023-06-14T04:14:08;13.75;;;6.87;;
58139;SDS011;53185;47.378;18.922;2023-06-14T04:16:35;10.35;;;6.07;;
58139;SDS011;53185;47.378;18.922;2023-06-14T04:19:03;12.75;;;6.95;;
58139;SDS011;53185;47.378;18.922;2023-06-14T04:21:30;12.43;;;7.60;;
58139;SDS011;53185;47.378;18.922;2023-06-14T04:23:58;20.48;;;7.18;;
58139;SDS011;53185;47.378;18.922;2023-06-14T04:26:29;10.52;;;6.47;;
58139;SDS011;53185;47.378;18.922;2023-06-14T04:28:57;10.20;;;6.53;;
58139;SDS011;53185;47.378;18.922;2023-06-14T04:31:29;17.73;;;7.80;;
58139;SDS011;53185;47.378;18.922;2023-06-14T04:34:01;12.70;;;6.93;;
58139;SDS011;53185;47.378;18.922;2023-06-14T04:36:34;12.32;;;6.70;;
58139;SDS011;53185;47.378;18.922;2023-06-14T04:41:31;10.98;;;6.70;;
58139;SDS011;53185;47.378;18.922;2023-06-14T04:44:00;12.23;;;6.85;;
58139;SDS011;53185;47.378;18.922;2023-06-14T04:46:29;15.88;;;10.20;;
58139;SDS011;53185;47.378;18.922;2023-06-14T04:49:00;13.82;;;6.57;;
58139;SDS011;53185;47.378;18.922;2023-06-14T04:51:29;16.58;;;7.57;;
58139;SDS011;53185;47.378;18.922;2023-06-14T04:53:58;11.98;;;6.65;;
58139;SDS011;53185;47.378;18.922;2023-06-14T04:56:26;10.05;;;6.45;;
58139;SDS011;53185;47.378;18.922;2023-06-14T04:58:53;14.43;;;6.65;;
58139;SDS011;53185;47.378;18.922;2023-06-14T05:01:24;10.75;;;6.60;;
58139;SDS011;53185;47.378;18.922;2023-06-14T05:03:51;11.52;;;6.70;;
58139;SDS011;53185;47.378;18.922;2023-06-14T05:06:19;15.82;;;10.10;;
58139;SDS011;53185;47.378;18.922;2023-06-14T05:08:46;13.68;;;6.22;;
58139;SDS011;53185;47.378;18.922;2023-06-14T05:11:14;10.43;;;6.32;;
58139;SDS011;53185;47.378;18.922;2023-06-14T05:13:41;15.65;;;6.25;;
58139;SDS011;53185;47.378;18.922;2023-06-14T05:16:10;11.30;;;6.47;;
58139;SDS011;53185;47.378;18.922;2023-06-14T05:18:38;10.20;;;6.00;;
58139;SDS011;53185;47.378;18.922;2023-06-14T05:21:07;17.80;;;7.30;;
58139;SDS011;53185;47.378;18.922;2023-06-14T05:23:35;13.55;;;5.95;;
58139;SDS011;53185;47.378;18.922;2023-06-14T05:26:03;8.35;;;6.12;;
58139;SDS011;53185;47.378;18.922;2023-06-14T05:28:31;9.60;;;6.40;;
58139;SDS011;53185;47.378;18.922;2023-06-14T05:30:59;10.13;;;6.82;;
58139;SDS011;53185;47.378;18.922;2023-06-14T05:33:27;11.35;;;6.35;;
58139;SDS011;53185;47.378;18.922;2023-06-14T05:35:54;8.73;;;5.65;;
58139;SDS011;53185;47.378;18.922;2023-06-14T05:38:22;11.15;;;6.10;;
58139;SDS011;53185;47.378;18.922;2023-06-14T05:40:49;7.70;;;5.85;;
58139;SDS011;53185;47.378;18.922;2023-06-14T05:43:17;12.15;;;5.97;;
58139;SDS011;53185;47.378;18.922;2023-06-14T05:45:44;16.87;;;6.70;;
58139;SDS011;53185;47.378;18.922;2023-06-14T05:48:12;8.63;;;5.78;;
58139;SDS011;53185;47.378;18.922;2023-06-14T05:50:39;9.23;;;6.00;;
58139;SDS011;53185;47.378;18.922;2023-06-14T05:53:06;7.68;;;5.95;;
58139;SDS011;53185;47.378;18.922;2023-06-14T05:55:34;8.30;;;6.35;;
58139;SDS011;53185;47.378;18.922;2023-06-14T05:58:03;10.07;;;6.37;;
58139;SDS011;53185;47.378;18.922;2023-06-14T06:00:30;10.52;;;5.62;;
58139;SDS011;53185;47.378;18.922;2023-06-14T06:02:58;10.18;;;6.37;;
58139;SDS011;53185;47.378;18.922;2023-06-14T06:05:26;9.98;;;6.00;;
58139;SDS011;53185;47.378;18.922;2023-06-14T06:07:53;7.45;;;5.72;;
58139;SDS011;53185;47.378;18.922;2023-06-14T06:10:21;9.60;;;5.45;;
58139;SDS011;53185;47.378;18.922;2023-06-14T06:12:48;9.27;;;6.40;;
58139;SDS011;53185;47.378;18.922;2023-06-14T06:15:18;7.37;;;4.95;;
58139;SDS011;53185;47.378;18.922;2023-06-14T06:17:46;10.38;;;5.80;;
58139;SDS011;53185;47.378;18.922;2023-06-14T06:20:23;10.40;;;6.35;;
58139;SDS011;53185;47.378;18.922;2023-06-14T06:22:56;9.15;;;5.47;;
58139;SDS011;53185;47.378;18.922;2023-06-14T06:25:25;7.18;;;5.30;;
58139;SDS011;53185;47.378;18.922;2023-06-14T06:27:54;8.48;;;5.78;;
58139;SDS011;53185;47.378;18.922;2023-06-14T06:30:24;11.10;;;5.40;;
58139;SDS011;53185;47.378;18.922;2023-06-14T06:32:51;14.48;;;5.72;;
58139;SDS011;53185;47.378;18.922;2023-06-14T06:35:20;12.88;;;6.20;;
58139;SDS011;53185;47.378;18.922;2023-06-14T06:37:47;10.00;;;6.55;;
58139;SDS011;53185;47.378;18.922;2023-06-14T06:40:15;9.60;;;6.62;;
58139;SDS011;53185;47.378;18.922;2023-06-14T06:42:42;12.82;;;6.93;;
58139;SDS011;53185;47.378;18.922;2023-06-14T06:45:10;8.32;;;6.65;;
58139;SDS011;53185;47.378;18.922;2023-06-14T06:47:38;14.38;;;7.32;;
58139;SDS011;53185;47.378;18.922;2023-06-14T06:50:05;15.35;;;7.28;;
58139;SDS011;53185;47.378;18.922;2023-06-14T06:52:34;9.40;;;7.03;;
58139;SDS011;53185;47.378;18.922;2023-06-14T06:55:02;9.63;;;7.37;;
58139;SDS011;53185;47.378;18.922;2023-06-14T06:57:31;10.37;;;7.70;;
58139;SDS011;53185;47.378;18.922;2023-06-14T06:59:59;11.27;;;7.55;;
58139;SDS011;53185;47.378;18.922;2023-06-14T07:02:26;16.77;;;9.52;;
58139;SDS011;53185;47.378;18.922;2023-06-14T07:04:53;20.27;;;8.05;;
58139;SDS011;53185;47.378;18.922;2023-06-14T07:07:22;12.02;;;8.35;;
58139;SDS011;53185;47.378;18.922;2023-06-14T07:09:49;10.13;;;6.90;;
58139;SDS011;53185;47.378;18.922;2023-06-14T07:12:17;12.02;;;7.75;;
58139;SDS011;53185;47.378;18.922;2023-06-14T07:14:45;8.88;;;6.85;;
58139;SDS011;53185;47.378;18.922;2023-06-14T07:17:13;10.23;;;7.37;;
58139;SDS011;53185;47.378;18.922;2023-06-14T07:19:40;11.50;;;5.72;;
58139;SDS011;53185;47.378;18.922;2023-06-14T07:22:08;8.10;;;5.45;;
58139;SDS011;53185;47.378;18.922;2023-06-14T07:24:35;10.38;;;5.62;;
58139;SDS011;53185;47.378;18.922;2023-06-14T07:27:03;10.48;;;5.75;;
58139;SDS011;53185;47.378;18.922;2023-06-14T07:29:31;7.90;;;5.03;;
58139;SDS011;53185;47.378;18.922;2023-06-14T07:31:58;8.35;;;5.00;;
58139;SDS011;53185;47.378;18.922;2023-06-14T07:34:29;6.70;;;4.47;;
58139;SDS011;53185;47.378;18.922;2023-06-14T07:36:57;8.98;;;4.47;;
58139;SDS011;53185;47.378;18.922;2023-06-14T07:39:24;10.15;;;5.07;;
58139;SDS011;53185;47.378;18.922;2023-06-14T07:41:52;14.02;;;4.62;;
58139;SDS011;53185;47.378;18.922;2023-06-14T07:44:20;11.57;;;4.07;;
58139;SDS011;53185;47.378;18.922;2023-06-14T07:46:47;9.98;;;4.85;;
58139;SDS011;53185;47.378;18.922;2023-06-14T07:49:16;12.80;;;4.85;;
58139;SDS011;53185;47.378;18.922;2023-06-14T07:51:44;8.48;;;4.40;;
58139;SDS011;53185;47.378;18.922;2023-06-14T07:54:13;9.57;;;5.30;;
58139;SDS011;53185;47.378;18.922;2023-06-14T07:56:40;8.90;;;4.25;;
58139;SDS011;53185;47.378;18.922;2023-06-14T07:59:11;7.60;;;4.43;;
58139;SDS011;53185;47.378;18.922;2023-06-14T08:01:38;6.87;;;4.47;;
58139;SDS011;53185;47.378;18.922;2023-06-14T08:04:07;8.98;;;4.70;;
58139;SDS011;53185;47.378;18.922;2023-06-14T08:06:34;9.70;;;4.07;;
58139;SDS011;53185;47.378;18.922;2023-06-14T08:09:01;14.27;;;4.60;;
58139;SDS011;53185;47.378;18.922;2023-06-14T08:11:29;13.00;;;3.97;;
58139;SDS011;53185;47.378;18.922;2023-06-14T08:13:57;5.85;;;4.43;;
58139;SDS011;53185;47.378;18.922;2023-06-14T08:16:24;8.40;;;3.70;;
58139;SDS011;53185;47.378;18.922;2023-06-14T08:18:52;7.50;;;4.28;;
58139;SDS011;53185;47.378;18.922;2023-06-14T08:21:19;6.43;;;4.15;;
58139;SDS011;53185;47.378;18.922;2023-06-14T08:23:47;7.70;;;4.78;;
58139;SDS011;53185;47.378;18.922;2023-06-14T08:26:14;6.78;;;3.90;;
58139;SDS011;53185;47.378;18.922;2023-06-14T08:28:42;8.30;;;4.30;;
58139;SDS011;53185;47.378;18.922;2023-06-14T08:31:09;5.60;;;4.03;;
58139;SDS011;53185;47.378;18.922;2023-06-14T08:33:37;9.93;;;5.97;;
58139;SDS011;53185;47.378;18.922;2023-06-14T08:36:04;12.60;;;5.20;;
58139;SDS011;53185;47.378;18.922;2023-06-14T08:38:32;7.53;;;4.32;;
58139;SDS011;53185;47.378;18.922;2023-06-14T08:40:59;5.00;;;3.72;;
58139;SDS011;53185;47.378;18.922;2023-06-14T08:43:29;7.82;;;4.80;;
58139;SDS011;53185;47.378;18.922;2023-06-14T08:46:00;7.72;;;5.72;;
58139;SDS011;53185;47.378;18.922;2023-06-14T08:48:34;5.75;;;4.25;;
58139;SDS011;53185;47.378;18.922;2023-06-14T08:51:02;8.75;;;4.05;;
58139;SDS011;53185;47.378;18.922;2023-06-14T08:53:31;10.27;;;4.00;;
58139;SDS011;53185;47.378;18.922;2023-06-14T08:56:05;6.70;;;4.12;;
58139;SDS011;53185;47.378;18.922;2023-06-14T08:58:34;10.03;;;4.93;;
58139;SDS011;53185;47.378;18.922;2023-06-14T09:01:03;8.27;;;4.37;;
58139;SDS011;53185;47.378;18.922;2023-06-14T09:03:31;7.50;;;4.22;;
58139;SDS011;53185;47.378;18.922;2023-06-14T09:06:00;7.65;;;4.57;;
58139;SDS011;53185;47.378;18.922;2023-06-14T09:08:28;8.05;;;4.78;;
58139;SDS011;53185;47.378;18.922;2023-06-14T09:14:28;7.90;;;4.78;;
58139;SDS011;53185;47.378;18.922;2023-06-14T09:16:56;8.68;;;4.68;;
58139;SDS011;53185;47.378;18.922;2023-06-14T09:19:23;8.52;;;4.87;;
58139;SDS011;53185;47.378;18.922;2023-06-14T09:21:52;9.10;;;4.53;;
58139;SDS011;53185;47.378;18.922;2023-06-14T09:24:20;7.32;;;4.87;;
58139;SDS011;53185;47.378;18.922;2023-06-14T09:26:47;8.35;;;4.12;;
58139;SDS011;53185;47.378;18.922;2023-06-14T09:29:16;6.35;;;4.37;;
58139;SDS011;53185;47.378;18.922;2023-06-14T09:31:47;4.90;;;4.33;;
58139;SDS011;53185;47.378;18.922;2023-06-14T09:34:15;9.05;;;4.40;;
58139;SDS011;53185;47.378;18.922;2023-06-14T09:40:20;6.80;;;4.80;;
58139;SDS011;53185;47.378;18.922;2023-06-14T09:42:48;9.45;;;4.28;;
58139;SDS011;53185;47.378;18.922;2023-06-14T09:45:16;8.90;;;4.05;;
58139;SDS011;53185;47.378;18.922;2023-06-14T09:47:49;5.82;;;4.68;;
58139;SDS011;53185;47.378;18.922;2023-06-14T09:50:32;13.50;;;9.93;;
58139;SDS011;53185;47.378;18.922;2023-06-14T09:53:02;15.45;;;9.05;;
58139;SDS011;53185;47.378;18.922;2023-06-14T09:55:34;9.10;;;5.62;;
58139;SDS011;53185;47.378;18.922;2023-06-14T10:00:32;11.30;;;4.28;;
58139;SDS011;53185;47.378;18.922;2023-06-14T10:03:03;7.30;;;3.62;;
58139;SDS011;53185;47.378;18.922;2023-06-14T10:05:35;6.82;;;3.10;;
58139;SDS011;53185;47.378;18.922;2023-06-14T10:08:04;7.12;;;3.78;;
58139;SDS011;53185;47.378;18.922;2023-06-14T10:10:56;9.52;;;4.87;;
58139;SDS011;53185;47.378;18.922;2023-06-14T10:13:25;9.52;;;5.65;;
58139;SDS011;53185;47.378;18.922;2023-06-14T10:21:33;13.82;;;8.88;;
58139;SDS011;53185;47.378;18.922;2023-06-14T10:24:05;12.82;;;3.70;;
58139;SDS011;53185;47.378;18.922;2023-06-14T10:26:34;20.00;;;9.23;;
58139;SDS011;53185;47.378;18.922;2023-06-14T10:29:08;12.95;;;6.10;;
58139;SDS011;53185;47.378;18.922;2023-06-14T10:31:40;5.12;;;3.40;;
58139;SDS011;53185;47.378;18.922;2023-06-14T10:34:10;6.10;;;3.60;;
58139;SDS011;53185;47.378;18.922;2023-06-14T10:40:08;5.72;;;2.65;;
58139;SDS011;53185;47.378;18.922;2023-06-14T10:42:36;5.12;;;4.05;;
58139;SDS011;53185;47.378;18.922;2023-06-14T10:45:04;11.32;;;7.47;;
58139;SDS011;53185;47.378;18.922;2023-06-14T10:47:33;8.40;;;5.03;;
58139;SDS011;53185;47.378;18.922;2023-06-14T10:53:40;11.43;;;4.30;;
58139;SDS011;53185;47.378;18.922;2023-06-14T10:56:08;9.77;;;3.92;;
58139;SDS011;53185;47.378;18.922;2023-06-14T10:58:36;4.90;;;2.75;;
58139;SDS011;53185;47.378;18.922;2023-06-14T11:04:46;10.40;;;5.57;;
58139;SDS011;53185;47.378;18.922;2023-06-14T11:10:45;3.95;;;3.10;;
58139;SDS011;53185;47.378;18.922;2023-06-14T11:13:15;5.55;;;3.50;;
58139;SDS011;53185;47.378;18.922;2023-06-14T11:19:14;22.10;;;10.13;;
58139;SDS011;53185;47.378;18.922;2023-06-14T11:21:46;15.10;;;9.15;;
58139;SDS011;53185;47.378;18.922;2023-06-14T11:24:14;7.90;;;5.28;;
58139;SDS011;53185;47.378;18.922;2023-06-14T11:26:42;8.52;;;3.40;;
58139;SDS011;53185;47.378;18.922;2023-06-14T11:29:10;10.15;;;5.40;;
58139;SDS011;53185;47.378;18.922;2023-06-14T11:31:38;7.53;;;2.85;;
58139;SDS011;53185;47.378;18.922;2023-06-14T11:34:13;4.28;;;3.10;;
58139;SDS011;53185;47.378;18.922;2023-06-14T11:36:40;4.93;;;2.37;;
58139;SDS011;53185;47.378;18.922;2023-06-14T11:39:08;3.53;;;2.85;;
58139;SDS011;53185;47.378;18.922;2023-06-14T11:41:40;13.50;;;5.93;;
58139;SDS011;53185;47.378;18.922;2023-06-14T11:44:23;13.27;;;5.32;;
58139;SDS011;53185;47.378;18.922;2023-06-14T11:46:51;5.87;;;2.60;;
58139;SDS011;53185;47.378;18.922;2023-06-14T11:52:55;4.65;;;2.97;;
58139;SDS011;53185;47.378;18.922;2023-06-14T11:58:54;5.93;;;2.85;;
58139;SDS011;53185;47.378;18.922;2023-06-14T12:01:24;5.07;;;3.22;;
58139;SDS011;53185;47.378;18.922;2023-06-14T12:07:24;11.38;;;4.53;;
58139;SDS011;53185;47.378;18.922;2023-06-14T12:12:26;8.10;;;4.62;;
58139;SDS011;53185;47.378;18.922;2023-06-14T12:14:54;6.25;;;3.30;;
58139;SDS011;53185;47.378;18.922;2023-06-14T12:17:22;7.68;;;3.10;;
58139;SDS011;53185;47.378;18.922;2023-06-14T12:19:50;13.70;;;5.68;;
58139;SDS011;53185;47.378;18.922;2023-06-14T12:22:17;7.62;;;4.85;;
58139;SDS011;53185;47.378;18.922;2023-06-14T12:24:45;8.95;;;4.45;;
58139;SDS011;53185;47.378;18.922;2023-06-14T12:30:46;9.00;;;4.95;;
58139;SDS011;53185;47.378;18.922;2023-06-14T12:33:15;6.62;;;4.60;;
58139;SDS011;53185;47.378;18.922;2023-06-14T12:35:42;11.68;;;6.45;;
58139;SDS011;53185;47.378;18.922;2023-06-14T12:38:10;9.45;;;3.10;;
58139;SDS011;53185;47.378;18.922;2023-06-14T12:40:38;7.80;;;5.37;;
58139;SDS011;53185;47.378;18.922;2023-06-14T12:43:06;5.03;;;2.87;;
58139;SDS011;53185;47.378;18.922;2023-06-14T12:45:33;10.02;;;4.30;;
58139;SDS011;53185;47.378;18.922;2023-06-14T12:48:01;3.87;;;2.67;;
58139;SDS011;53185;47.378;18.922;2023-06-14T12:50:28;5.28;;;2.78;;
58139;SDS011;53185;47.378;18.922;2023-06-14T12:52:58;8.88;;;4.70;;
58139;SDS011;53185;47.378;18.922;2023-06-14T12:55:26;8.75;;;5.20;;
58139;SDS011;53185;47.378;18.922;2023-06-14T12:57:53;8.77;;;4.55;;
58139;SDS011;53185;47.378;18.922;2023-06-14T13:00:20;3.65;;;3.00;;
58139;SDS011;53185;47.378;18.922;2023-06-14T13:02:49;7.05;;;3.05;;
58139;SDS011;53185;47.378;18.922;2023-06-14T13:05:20;7.45;;;4.07;;
58139;SDS011;53185;47.378;18.922;2023-06-14T13:07:47;4.53;;;2.80;;
58139;SDS011;53185;47.378;18.922;2023-06-14T13:10:15;5.43;;;3.03;;
58139;SDS011;53185;47.378;18.922;2023-06-14T13:12:44;5.37;;;2.70;;
58139;SDS011;53185;47.378;18.922;2023-06-14T13:15:12;4.18;;;3.25;;
58139;SDS011;53185;47.378;18.922;2023-06-14T13:17:39;6.05;;;3.60;;
58139;SDS011;53185;47.378;18.922;2023-06-14T13:20:11;7.53;;;3.03;;
58139;SDS011;53185;47.378;18.922;2023-06-14T13:22:39;5.65;;;2.97;;
58139;SDS011;53185;47.378;18.922;2023-06-14T13:25:06;5.05;;;3.40;;
58139;SDS011;53185;47.378;18.922;2023-06-14T13:27:36;4.62;;;2.85;;
58139;SDS011;53185;47.378;18.922;2023-06-14T13:30:04;4.53;;;2.97;;
58139;SDS011;53185;47.378;18.922;2023-06-14T13:32:34;7.85;;;4.40;;
58139;SDS011;53185;47.378;18.922;2023-06-14T13:35:02;5.28;;;3.20;;
58139;SDS011;53185;47.378;18.922;2023-06-14T13:37:33;9.85;;;4.80;;
58139;SDS011;53185;47.378;18.922;2023-06-14T13:40:00;8.45;;;5.57;;
58139;SDS011;53185;47.378;18.922;2023-06-14T13:42:28;5.22;;;3.47;;
58139;SDS011;53185;47.378;18.922;2023-06-14T13:44:58;7.57;;;5.80;;
58139;SDS011;53185;47.378;18.922;2023-06-14T13:47:27;22.40;;;14.00;;
58139;SDS011;53185;47.378;18.922;2023-06-14T13:49:55;5.05;;;3.08;;
58139;SDS011;53185;47.378;18.922;2023-06-14T13:52:22;8.80;;;5.37;;
58139;SDS011;53185;47.378;18.922;2023-06-14T13:54:50;16.62;;;8.85;;
58139;SDS011;53185;47.378;18.922;2023-06-14T14:00:48;9.75;;;7.68;;
58139;SDS011;53185;47.378;18.922;2023-06-14T14:03:16;12.02;;;7.05;;
58139;SDS011;53185;47.378;18.922;2023-06-14T14:08:50;6.05;;;3.17;;
58139;SDS011;53185;47.378;18.922;2023-06-14T14:14:51;4.18;;;3.05;;
58139;SDS011;53185;47.378;18.922;2023-06-14T14:17:19;6.07;;;3.00;;
58139;SDS011;53185;47.378;18.922;2023-06-14T14:19:47;4.28;;;2.90;;
58139;SDS011;53185;47.378;18.922;2023-06-14T14:22:14;8.45;;;5.40;;
58139;SDS011;53185;47.378;18.922;2023-06-14T14:24:41;8.23;;;4.28;;
58139;SDS011;53185;47.378;18.922;2023-06-14T14:27:09;15.90;;;9.10;;
58139;SDS011;53185;47.378;18.922;2023-06-14T14:29:39;10.38;;;3.58;;
58139;SDS011;53185;47.378;18.922;2023-06-14T14:32:07;14.73;;;5.32;;
58139;SDS011;53185;47.378;18.922;2023-06-14T14:34:37;4.97;;;3.40;;
58139;SDS011;53185;47.378;18.922;2023-06-14T14:37:07;5.57;;;3.15;;
58139;SDS011;53185;47.378;18.922;2023-06-14T14:39:36;11.43;;;3.28;;
58139;SDS011;53185;47.378;18.922;2023-06-14T14:42:04;13.30;;;5.32;;
58139;SDS011;53185;47.378;18.922;2023-06-14T14:44:34;10.25;;;5.62;;
58139;SDS011;53185;47.378;18.922;2023-06-14T14:47:01;11.80;;;7.00;;
58139;SDS011;53185;47.378;18.922;2023-06-14T14:49:30;9.60;;;5.97;;
58139;SDS011;53185;47.378;18.922;2023-06-14T14:52:01;6.80;;;3.28;;
58139;SDS011;53185;47.378;18.922;2023-06-14T14:54:50;7.90;;;2.80;;
58139;SDS011;53185;47.378;18.922;2023-06-14T14:57:17;3.70;;;2.83;;
58139;SDS011;53185;47.378;18.922;2023-06-14T14:59:44;9.50;;;5.40;;
58139;SDS011;53185;47.378;18.922;2023-06-14T15:02:12;14.00;;;6.43;;
58139;SDS011;53185;47.378;18.922;2023-06-14T15:04:40;7.72;;;4.70;;
58139;SDS011;53185;47.378;18.922;2023-06-14T15:07:07;5.53;;;3.05;;
58139;SDS011;53185;47.378;18.922;2023-06-14T15:09:35;6.53;;;4.40;;
58139;SDS011;53185;47.378;18.922;2023-06-14T15:12:02;7.32;;;4.75;;
58139;SDS011;53185;47.378;18.922;2023-06-14T15:18:00;5.97;;;3.15;;
58139;SDS011;53185;47.378;18.922;2023-06-14T15:20:28;20.55;;;3.33;;
58139;SDS011;53185;47.378;18.922;2023-06-14T15:22:56;8.80;;;3.55;;
58139;SDS011;53185;47.378;18.922;2023-06-14T15:25:28;6.65;;;2.95;;
58139;SDS011;53185;47.378;18.922;2023-06-14T15:31:15;5.70;;;3.00;;
58139;SDS011;53185;47.378;18.922;2023-06-14T15:37:13;6.70;;;4.20;;
58139;SDS011;53185;47.378;18.922;2023-06-14T15:39:41;12.13;;;7.53;;
58139;SDS011;53185;47.378;18.922;2023-06-14T15:48:06;5.65;;;2.95;;
58139;SDS011;53185;47.378;18.922;2023-06-14T15:50:35;6.18;;;2.70;;
58139;SDS011;53185;47.378;18.922;2023-06-14T15:53:03;4.53;;;2.50;;
58139;SDS011;53185;47.378;18.922;2023-06-14T15:55:30;7.35;;;3.12;;
58139;SDS011;53185;47.378;18.922;2023-06-14T15:57:59;9.25;;;3.03;;
58139;SDS011;53185;47.378;18.922;2023-06-14T16:00:26;4.90;;;3.12;;
58139;SDS011;53185;47.378;18.922;2023-06-14T16:02:54;4.00;;;2.58;;